Time;durP1;ratioP1;P1;durP2;ratioP2;P2;SDS_P1;SDS_P2;PMS_P1;PMS_P2;Temp;Humidity;BMP_temperature;BMP_pressure;BME280_temperature;BME280_humidity;BME280_pressure;Samples;Min_cycle;Max_cycle;Signal;HPM_P1;HPM_P2
2023/01/08 00:01:05;;;;;;;3.60;2.20;;;10.90;99.90;;;;;;5028275;28;20464;-79
2023/01/08 00:03:32;;;;;;;1.80;1.20;;;10.80;99.90;;;;;;5032908;28;20454;-78
2023/01/08 00:06:01;;;;;;;2.30;1.60;;;10.90;99.90;;;;;;5032492;28;20471;-77
2023/01/08 00:08:28;;;;;;;2.50;1.53;;;10.80;99.90;;;;;;5029992;28;20887;-79
2023/01/08 00:10:55;;;;;;;3.20;1.30;;;10.80;99.90;;;;;;5029253;28;20479;-78
2023/01/08 00:13:22;;;;;;;2.23;1.40;;;10.80;99.90;;;;;;5028239;28;20884;-77
2023/01/08 00:15:51;;;;;;;2.20;1.63;;;10.80;99.90;;;;;;5024726;28;20984;-77
2023/01/08 00:18:17;;;;;;;2.27;1.27;;;10.90;99.90;;;;;;5035726;28;20482;-77
2023/01/08 00:20:45;;;;;;;2.10;1.50;;;10.90;99.90;;;;;;5028107;28;20445;-78
2023/01/08 00:23:12;;;;;;;1.90;1.40;;;10.90;99.90;;;;;;5028225;28;20458;-79
2023/01/08 00:25:39;;;;;;;2.73;1.43;;;10.90;99.90;;;;;;5042998;23;20494;-81
2023/01/08 00:28:06;;;;;;;2.30;1.40;;;10.90;99.90;;;;;;5029359;28;20468;-81
2023/01/08 00:30:33;;;;;;;3.27;1.67;;;10.90;99.90;;;;;;5029319;28;20445;-81
2023/01/08 00:33:01;;;;;;;2.60;1.23;;;10.80;99.90;;;;;;5026860;28;20471;-82
2023/01/08 00:35:28;;;;;;;1.80;1.30;;;10.80;99.90;;;;;;5026044;28;20500;-82
2023/01/08 00:37:55;;;;;;;3.50;1.50;;;10.90;99.90;;;;;;5027007;28;20451;-82
2023/01/08 00:40:22;;;;;;;2.40;1.60;;;10.90;99.90;;;;;;5027263;28;20488;-82
2023/01/08 00:42:49;;;;;;;2.30;1.60;;;10.80;99.90;;;;;;5017652;28;20453;-81
2023/01/08 00:45:16;;;;;;;2.70;1.53;;;10.80;99.90;;;;;;5026680;28;20465;-81
2023/01/08 00:47:43;;;;;;;2.10;1.30;;;10.90;99.90;;;;;;5022859;28;20865;-82
2023/01/08 00:50:11;;;;;;;2.17;1.30;;;10.90;99.90;;;;;;5026012;28;20457;-82
2023/01/08 00:52:38;;;;;;;2.30;1.47;;;10.90;99.90;;;;;;5018603;28;20460;-82
2023/01/08 00:55:06;;;;;;;2.67;1.50;;;11.00;99.90;;;;;;5028264;28;20542;-82
2023/01/08 00:57:34;;;;;;;2.93;1.63;;;10.80;99.90;;;;;;5026930;28;20462;-82
2023/01/08 01:00:01;;;;;;;2.57;1.50;;;10.90;99.90;;;;;;5023045;28;20458;-83
2023/01/08 01:02:28;;;;;;;2.20;1.37;;;10.90;99.90;;;;;;5020004;28;20488;-82
2023/01/08 01:04:55;;;;;;;2.17;1.40;;;10.90;99.90;;;;;;5014622;28;20493;-82
2023/01/08 01:07:23;;;;;;;2.03;1.30;;;10.90;99.90;;;;;;5018432;28;20548;-82
2023/01/08 01:09:50;;;;;;;1.97;1.33;;;10.90;99.90;;;;;;5027186;28;20459;-81
2023/01/08 01:12:17;;;;;;;2.10;1.17;;;10.90;99.90;;;;;;5031358;28;20481;-81
2023/01/08 01:14:44;;;;;;;2.30;1.60;;;11.00;99.90;;;;;;5033939;28;20482;-81
2023/01/08 01:17:11;;;;;;;2.10;1.30;;;11.00;99.90;;;;;;5028037;28;20484;-81
2023/01/08 01:19:38;;;;;;;2.10;1.40;;;11.00;99.90;;;;;;5031816;28;20442;-81
2023/01/08 01:22:05;;;;;;;2.00;1.30;;;11.00;99.90;;;;;;5034465;28;20441;-81
2023/01/08 01:24:34;;;;;;;1.90;1.00;;;11.00;99.90;;;;;;5026896;28;20890;-80
2023/01/08 01:27:00;;;;;;;2.93;1.47;;;11.00;99.90;;;;;;5013768;28;20486;-81
2023/01/08 01:29:27;;;;;;;2.30;1.37;;;11.00;99.90;;;;;;5014525;28;20461;-81
2023/01/08 01:31:54;;;;;;;2.20;1.30;;;10.90;99.90;;;;;;5032968;28;20464;-81
2023/01/08 01:34:21;;;;;;;2.20;1.20;;;11.00;99.90;;;;;;5028255;28;21254;-81
2023/01/08 01:36:48;;;;;;;2.07;1.30;;;11.00;99.90;;;;;;5009930;28;20488;-81
2023/01/08 01:39:15;;;;;;;3.23;1.37;;;11.00;99.90;;;;;;5009429;28;20522;-80
2023/01/08 01:41:45;;;;;;;2.63;1.50;;;10.90;99.90;;;;;;5024419;28;20516;-81
2023/01/08 01:44:35;;;;;;;3.73;1.37;;;10.90;99.90;;;;;;5031258;28;20476;-81
2023/01/08 01:47:04;;;;;;;2.57;1.40;;;10.90;99.90;;;;;;5011314;28;20454;-82
2023/01/08 01:49:32;;;;;;;2.60;1.33;;;11.00;99.90;;;;;;5014058;28;20540;-82
2023/01/08 01:52:03;;;;;;;2.67;1.40;;;10.90;99.90;;;;;;5027858;28;20448;-82
2023/01/08 01:54:31;;;;;;;2.17;1.37;;;10.90;99.90;;;;;;5025978;28;20497;-81
2023/01/08 01:57:00;;;;;;;2.30;1.40;;;10.90;99.90;;;;;;5029332;28;20516;-82
2023/01/08 01:59:27;;;;;;;2.70;1.20;;;10.90;99.90;;;;;;5023063;28;20462;-82
2023/01/08 02:01:56;;;;;;;2.17;1.20;;;10.90;99.90;;;;;;5008892;28;20493;-82
2023/01/08 02:04:22;;;;;;;2.00;1.23;;;10.90;99.90;;;;;;5014246;28;20453;-82
2023/01/08 02:06:56;;;;;;;5.20;1.20;;;10.90;99.90;;;;;;5029759;28;20484;-82
2023/01/08 02:09:35;;;;;;;2.20;1.40;;;11.00;99.90;;;;;;5028029;28;20453;-80
2023/01/08 02:12:17;;;;;;;4.73;1.37;;;11.00;99.90;;;;;;5029564;28;20534;-81
2023/01/08 02:14:54;;;;;;;4.37;1.50;;;10.90;99.90;;;;;;5028569;28;20525;-81
2023/01/08 02:17:26;;;;;;;2.23;1.30;;;10.90;99.90;;;;;;5027980;28;20459;-81
2023/01/08 02:19:58;;;;;;;2.50;1.40;;;10.90;99.90;;;;;;5014458;28;20496;-82
2023/01/08 02:22:34;;;;;;;4.63;1.60;;;10.90;99.90;;;;;;5010744;28;20449;-81
2023/01/08 02:25:07;;;;;;;3.33;2.00;;;10.80;99.90;;;;;;5006498;28;20516;-81
2023/01/08 02:27:37;;;;;;;2.90;1.50;;;10.80;99.90;;;;;;5015323;28;20522;-82
2023/01/08 02:30:06;;;;;;;3.53;1.67;;;10.80;99.90;;;;;;5036881;28;20464;-82
2023/01/08 02:32:36;;;;;;;2.33;1.30;;;10.80;99.90;;;;;;5027933;28;20458;-82
2023/01/08 02:35:03;;;;;;;2.60;1.50;;;10.80;99.90;;;;;;5025302;28;20556;-80
2023/01/08 02:37:30;;;;;;;3.43;1.70;;;10.70;99.90;;;;;;5012505;28;20464;-81
2023/01/08 02:40:09;;;;;;;2.87;1.40;;;10.70;99.90;;;;;;5002360;28;20533;-82
2023/01/08 02:42:42;;;;;;;2.13;1.60;;;10.70;99.90;;;;;;5018819;28;20453;-81
2023/01/08 02:45:20;;;;;;;2.87;1.97;;;10.70;99.90;;;;;;5021795;28;20580;-81
2023/01/08 02:47:54;;;;;;;3.70;1.50;;;10.80;99.90;;;;;;5005741;28;20532;-81
2023/01/08 02:50:25;;;;;;;3.40;1.33;;;10.60;99.90;;;;;;5022107;28;20507;-80
2023/01/08 02:52:58;;;;;;;2.40;1.47;;;10.60;99.90;;;;;;5006107;28;20526;-82
2023/01/08 02:55:27;;;;;;;2.50;1.60;;;10.70;99.90;;;;;;5006051;28;20493;-82
2023/01/08 02:57:57;;;;;;;3.73;1.73;;;10.70;99.90;;;;;;5018808;28;20564;-82
2023/01/08 03:00:24;;;;;;;2.67;1.47;;;10.60;99.90;;;;;;5026271;28;21175;-83
2023/01/08 03:02:57;;;;;;;3.27;1.70;;;10.70;99.90;;;;;;5028152;28;20437;-83
2023/01/08 03:05:27;;;;;;;2.87;1.10;;;10.70;99.90;;;;;;5032046;28;20539;-83
2023/01/08 03:07:55;;;;;;;1.80;1.27;;;10.70;99.90;;;;;;5014006;28;20544;-82
2023/01/08 03:10:25;;;;;;;3.30;1.60;;;10.60;99.90;;;;;;5011797;28;20700;-82
2023/01/08 03:12:57;;;;;;;2.30;1.67;;;10.70;99.90;;;;;;5010141;28;20488;-80
2023/01/08 03:15:30;;;;;;;5.03;1.40;;;10.70;99.90;;;;;;5009923;28;20489;-80
2023/01/08 03:18:01;;;;;;;2.57;1.47;;;10.60;99.90;;;;;;5025527;28;20524;-79
2023/01/08 03:20:29;;;;;;;1.97;1.13;;;10.70;99.90;;;;;;5020036;28;20452;-82
2023/01/08 03:23:00;;;;;;;2.20;1.60;;;10.60;99.90;;;;;;5004317;28;20458;-81
2023/01/08 03:25:30;;;;;;;3.00;1.50;;;10.60;99.90;;;;;;5003880;28;20478;-79
2023/01/08 03:28:02;;;;;;;3.13;1.70;;;10.70;99.90;;;;;;5006684;28;20515;-78
2023/01/08 03:30:30;;;;;;;3.40;1.47;;;10.70;99.90;;;;;;5004283;28;20994;-78
2023/01/08 03:32:59;;;;;;;2.70;1.50;;;10.60;99.90;;;;;;5008634;28;20462;-78
2023/01/08 03:35:27;;;;;;;3.90;1.70;;;10.60;99.90;;;;;;5006896;28;20536;-78
2023/01/08 03:37:58;;;;;;;2.20;1.33;;;10.60;99.90;;;;;;5023452;28;20453;-78
2023/01/08 03:40:30;;;;;;;2.77;1.67;;;10.60;99.90;;;;;;5020267;28;20458;-82
2023/01/08 03:42:58;;;;;;;5.93;2.53;;;10.60;99.90;;;;;;5020968;28;20480;-79
2023/01/08 03:45:28;;;;;;;3.43;1.73;;;10.70;99.90;;;;;;5027286;28;20495;-80
2023/01/08 03:47:56;;;;;;;3.27;1.60;;;10.60;99.90;;;;;;5017464;28;20524;-80
2023/01/08 03:50:27;;;;;;;5.73;1.63;;;10.60;99.90;;;;;;5007261;28;20525;-80
2023/01/08 03:52:54;;;;;;;2.83;1.30;;;10.60;99.90;;;;;;5004786;28;20510;-80
2023/01/08 03:55:21;;;;;;;3.40;1.83;;;10.70;99.90;;;;;;5007868;28;20953;-79
2023/01/08 03:57:47;;;;;;;2.87;1.70;;;10.60;99.90;;;;;;5005540;28;20455;-80
2023/01/08 04:00:16;;;;;;;2.10;1.57;;;10.60;99.90;;;;;;5004106;28;20980;-80
2023/01/08 04:02:43;;;;;;;2.70;1.40;;;10.60;99.90;;;;;;5010621;28;20524;-79
2023/01/08 04:05:10;;;;;;;4.00;2.20;;;10.60;99.90;;;;;;5002765;28;20564;-79
2023/01/08 04:07:38;;;;;;;2.17;1.50;;;10.60;99.90;;;;;;5005921;28;20583;-78
2023/01/08 04:10:05;;;;;;;2.43;1.50;;;10.60;99.90;;;;;;5021440;28;20445;-79
2023/01/08 04:12:32;;;;;;;2.07;1.50;;;10.60;99.90;;;;;;5011454;28;20447;-79
2023/01/08 04:14:59;;;;;;;2.40;1.43;;;10.60;99.90;;;;;;5025386;28;20555;-81
2023/01/08 04:17:27;;;;;;;1.97;1.40;;;10.50;99.90;;;;;;5023706;28;20992;-80
2023/01/08 04:19:54;;;;;;;3.10;1.70;;;10.50;99.90;;;;;;5025260;28;20480;-79
2023/01/08 04:22:20;;;;;;;3.80;1.30;;;10.40;99.90;;;;;;5027296;28;20895;-78
2023/01/08 04:24:47;;;;;;;3.67;1.80;;;10.50;99.90;;;;;;5020651;28;20516;-79
2023/01/08 04:27:14;;;;;;;2.63;1.70;;;10.50;99.90;;;;;;5010759;28;20434;-78
2023/01/08 04:29:41;;;;;;;2.60;1.33;;;10.50;99.90;;;;;;5015137;28;20444;-78
2023/01/08 04:32:08;;;;;;;2.43;1.30;;;10.50;99.90;;;;;;5020290;28;20559;-79
2023/01/08 04:34:36;;;;;;;2.07;1.20;;;10.50;99.90;;;;;;5028164;28;20464;-79
2023/01/08 04:37:03;;;;;;;1.97;1.30;;;10.60;99.90;;;;;;5026796;28;20480;-80
2023/01/08 04:39:30;;;;;;;1.80;1.30;;;10.60;99.90;;;;;;5006241;28;20887;-80
2023/01/08 04:41:57;;;;;;;2.40;1.40;;;10.60;99.90;;;;;;5020074;28;21009;-78
2023/01/08 04:44:23;;;;;;;2.20;1.20;;;10.60;99.90;;;;;;5015356;28;20458;-79
2023/01/08 04:46:50;;;;;;;2.53;1.20;;;10.60;99.90;;;;;;5005753;28;20475;-79
2023/01/08 04:49:17;;;;;;;4.03;1.30;;;10.60;99.90;;;;;;5005163;28;20582;-80
2023/01/08 04:51:45;;;;;;;3.60;1.77;;;10.60;99.90;;;;;;5014155;28;20484;-78
2023/01/08 04:54:12;;;;;;;2.47;1.50;;;10.50;99.90;;;;;;5007545;28;20555;-79
2023/01/08 04:56:39;;;;;;;2.30;1.20;;;10.50;99.90;;;;;;5010481;28;20501;-79
2023/01/08 04:59:06;;;;;;;4.10;1.20;;;10.50;99.90;;;;;;5018957;28;20532;-78
2023/01/08 05:01:32;;;;;;;1.93;1.20;;;10.40;99.90;;;;;;5016656;28;20529;-79
2023/01/08 05:04:01;;;;;;;2.20;1.50;;;10.40;99.90;;;;;;5020314;28;20548;-81
2023/01/08 05:06:29;;;;;;;1.93;1.37;;;10.40;99.90;;;;;;5017201;28;20476;-80
2023/01/08 05:08:58;;;;;;;2.27;1.20;;;10.30;99.90;;;;;;5018809;28;20484;-81
2023/01/08 05:11:26;;;;;;;3.30;1.50;;;10.30;99.90;;;;;;5028971;28;20518;-77
2023/01/08 05:13:53;;;;;;;2.57;1.20;;;10.20;99.90;;;;;;5029408;28;20488;-80
2023/01/08 05:16:20;;;;;;;2.77;1.00;;;10.20;99.90;;;;;;5018699;28;20494;-79
2023/01/08 05:18:47;;;;;;;2.10;1.00;;;10.10;99.90;;;;;;5011300;28;20505;-79
2023/01/08 05:21:14;;;;;;;1.63;1.10;;;10.10;99.90;;;;;;5009517;28;20863;-79
2023/01/08 05:23:45;;;;;;;1.97;1.07;;;10.10;99.90;;;;;;5011867;28;20477;-79
2023/01/08 05:26:14;;;;;;;2.20;1.23;;;10.10;99.90;;;;;;5028087;28;20480;-79
2023/01/08 05:28:41;;;;;;;1.57;0.97;;;10.10;99.90;;;;;;5032525;28;20485;-79
2023/01/08 05:31:07;;;;;;;1.90;0.90;;;10.20;99.90;;;;;;5030350;28;21029;-79
2023/01/08 05:33:34;;;;;;;2.87;1.00;;;10.20;99.90;;;;;;5030081;28;20449;-79
2023/01/08 05:36:04;;;;;;;2.27;1.27;;;10.20;99.90;;;;;;5027436;28;20556;-79
2023/01/08 05:38:30;;;;;;;3.20;1.07;;;10.30;99.90;;;;;;5017191;28;20563;-80
2023/01/08 05:40:57;;;;;;;2.03;1.00;;;10.40;99.90;;;;;;5019447;28;21948;-78
2023/01/08 05:43:26;;;;;;;2.90;1.40;;;10.40;99.90;;;;;;5013430;28;20543;-78
2023/01/08 05:45:53;;;;;;;1.87;0.93;;;10.40;99.90;;;;;;5017140;28;20466;-78
2023/01/08 05:48:20;;;;;;;3.20;1.40;;;10.40;99.90;;;;;;5014636;28;20456;-77
2023/01/08 05:50:49;;;;;;;1.80;0.90;;;10.40;99.90;;;;;;5016102;28;20452;-77
2023/01/08 05:53:16;;;;;;;1.90;1.30;;;10.50;99.90;;;;;;5014896;28;20529;-77
2023/01/08 05:55:43;;;;;;;1.80;1.10;;;10.50;99.90;;;;;;5016041;28;20749;-77
2023/01/08 05:58:10;;;;;;;2.07;0.90;;;10.50;99.90;;;;;;5014700;28;20440;-78
2023/01/08 06:00:39;;;;;;;1.70;1.00;;;10.60;99.90;;;;;;5016395;28;20515;-78
2023/01/08 06:03:06;;;;;;;2.57;0.90;;;10.60;99.90;;;;;;5010407;28;20536;-78
2023/01/08 06:05:33;;;;;;;1.70;1.00;;;10.50;99.90;;;;;;5013933;28;20481;-78
2023/01/08 06:08:00;;;;;;;1.87;1.00;;;10.50;99.90;;;;;;5004363;28;20467;-78
2023/01/08 06:10:27;;;;;;;1.77;1.00;;;10.50;99.90;;;;;;4997907;28;20551;-78
2023/01/08 06:12:54;;;;;;;1.70;1.00;;;10.40;99.90;;;;;;5018280;28;20455;-78
2023/01/08 06:15:21;;;;;;;1.70;1.07;;;10.40;99.90;;;;;;5019834;28;20906;-79
2023/01/08 06:17:49;;;;;;;1.40;0.80;;;10.40;99.90;;;;;;5021306;28;20539;-77
2023/01/08 06:20:16;;;;;;;1.60;0.90;;;10.50;99.90;;;;;;5022383;28;20548;-78
2023/01/08 06:22:43;;;;;;;1.70;0.90;;;10.50;99.90;;;;;;5006627;28;20488;-79
2023/01/08 06:25:10;;;;;;;1.80;0.90;;;10.50;99.90;;;;;;5019440;28;20548;-78
2023/01/08 06:27:37;;;;;;;2.70;1.20;;;10.50;99.90;;;;;;5042253;23;20570;-76
2023/01/08 06:30:05;;;;;;;1.70;1.00;;;10.60;99.90;;;;;;5020867;28;20841;-77
2023/01/08 06:32:31;;;;;;;1.60;1.10;;;10.50;99.90;;;;;;5021126;28;20459;-77
2023/01/08 06:35:00;;;;;;;2.20;1.10;;;10.50;99.90;;;;;;5030000;28;20451;-77
2023/01/08 06:37:26;;;;;;;2.23;1.67;;;10.60;99.90;;;;;;5024083;28;20497;-78
2023/01/08 06:39:53;;;;;;;2.03;0.90;;;10.60;99.90;;;;;;5025044;28;20460;-77
2023/01/08 06:42:20;;;;;;;1.50;0.80;;;10.60;99.90;;;;;;5032482;28;20540;-77
2023/01/08 06:44:47;;;;;;;2.13;1.00;;;10.60;99.90;;;;;;5031619;28;20453;-77
2023/01/08 06:47:14;;;;;;;3.57;1.20;;;10.70;99.90;;;;;;5028961;28;20460;-78
2023/01/08 06:49:40;;;;;;;1.70;1.10;;;10.70;99.90;;;;;;5032185;28;20447;-78
2023/01/08 06:52:09;;;;;;;1.60;0.87;;;10.70;99.90;;;;;;5028627;28;20467;-77
2023/01/08 06:54:35;;;;;;;2.10;1.00;;;10.70;99.90;;;;;;5039784;28;20543;-77
2023/01/08 06:57:02;;;;;;;2.23;1.00;;;10.60;99.90;;;;;;5035901;28;20498;-77
2023/01/08 06:59:29;;;;;;;3.50;1.17;;;10.60;99.90;;;;;;5032685;28;20463;-77
2023/01/08 07:01:56;;;;;;;1.60;0.83;;;10.60;99.90;;;;;;5032466;28;20462;-77
2023/01/08 07:04:23;;;;;;;1.50;0.80;;;10.70;99.90;;;;;;5024936;28;20458;-77
2023/01/08 07:06:50;;;;;;;1.90;0.80;;;10.60;99.90;;;;;;5032539;28;20547;-77
2023/01/08 07:09:18;;;;;;;1.70;0.80;;;10.70;99.90;;;;;;5021990;28;20457;-77
2023/01/08 07:11:45;;;;;;;1.60;0.90;;;10.60;99.90;;;;;;5012906;28;20452;-78
2023/01/08 07:14:11;;;;;;;1.47;0.87;;;10.60;99.90;;;;;;5012908;28;20453;-77
2023/01/08 07:16:38;;;;;;;1.90;0.80;;;10.50;99.90;;;;;;5015133;28;20491;-77
2023/01/08 07:19:05;;;;;;;2.47;1.10;;;10.30;99.90;;;;;;5030583;28;20851;-77
2023/01/08 07:21:32;;;;;;;3.40;1.40;;;10.10;99.90;;;;;;5019168;28;20500;-76
2023/01/08 07:23:59;;;;;;;1.90;1.20;;;10.00;99.90;;;;;;5030049;28;20931;-77
2023/01/08 07:26:27;;;;;;;2.10;0.90;;;9.80;99.90;;;;;;5025078;28;20490;-77
2023/01/08 07:28:54;;;;;;;1.80;1.20;;;9.60;99.90;;;;;;5020040;28;20522;-78
2023/01/08 07:31:21;;;;;;;4.50;1.30;;;9.60;99.90;;;;;;5022334;28;20960;-78
2023/01/08 07:33:48;;;;;;;1.97;0.93;;;9.40;99.90;;;;;;5024074;28;20445;-78
2023/01/08 07:36:21;;;;;;;1.70;0.80;;;9.30;99.90;;;;;;5023746;28;20491;-79
2023/01/08 07:38:48;;;;;;;3.23;1.27;;;9.20;99.90;;;;;;5026313;28;20466;-77
2023/01/08 07:41:15;;;;;;;2.27;0.90;;;9.20;99.90;;;;;;5024084;28;20455;-77
2023/01/08 07:43:43;;;;;;;2.17;0.70;;;9.10;99.90;;;;;;5031641;28;20454;-78
2023/01/08 07:46:10;;;;;;;4.43;1.33;;;9.10;99.90;;;;;;5023963;28;20477;-77
2023/01/08 07:48:37;;;;;;;4.53;1.23;;;9.00;99.90;;;;;;5019151;28;20490;-78
2023/01/08 07:51:05;;;;;;;3.00;1.20;;;8.90;99.90;;;;;;5034103;28;20451;-78
2023/01/08 07:53:32;;;;;;;1.93;1.00;;;8.90;99.90;;;;;;5015889;28;20449;-77
2023/01/08 07:56:00;;;;;;;2.23;0.97;;;8.90;99.90;;;;;;5015702;28;20450;-78
2023/01/08 07:58:27;;;;;;;3.87;1.00;;;8.90;99.90;;;;;;5027213;28;20446;-78
2023/01/08 08:00:56;;;;;;;3.30;0.90;;;8.90;99.90;;;;;;5035056;28;20966;-77
2023/01/08 08:03:23;;;;;;;1.80;0.60;;;8.90;99.90;;;;;;5035660;28;20445;-78
2023/01/08 08:05:50;;;;;;;3.43;1.07;;;8.90;99.90;;;;;;5026283;28;20450;-78
2023/01/08 08:08:18;;;;;;;3.77;0.87;;;8.90;99.90;;;;;;5027531;28;21033;-78
2023/01/08 08:10:45;;;;;;;1.63;0.80;;;8.90;99.90;;;;;;5018327;28;20446;-77
2023/01/08 08:13:12;;;;;;;2.20;0.80;;;8.80;99.90;;;;;;5023245;28;20447;-77
2023/01/08 08:15:40;;;;;;;1.77;0.80;;;8.80;99.90;;;;;;5019554;28;20462;-77
2023/01/08 08:18:09;;;;;;;1.70;1.10;;;8.70;99.90;;;;;;5015630;28;20485;-76
2023/01/08 08:20:36;;;;;;;2.57;0.90;;;8.60;99.90;;;;;;5023370;28;20453;-77
2023/01/08 08:23:04;;;;;;;2.67;0.87;;;8.70;99.90;;;;;;5033649;28;20472;-76
2023/01/08 08:25:31;;;;;;;2.40;1.00;;;8.70;99.90;;;;;;5029324;28;20457;-77
2023/01/08 08:27:59;;;;;;;3.57;0.80;;;8.70;99.90;;;;;;5026189;28;20482;-76
2023/01/08 08:30:26;;;;;;;3.97;1.10;;;8.80;99.90;;;;;;5026337;28;20448;-76
2023/01/08 08:32:54;;;;;;;2.27;0.80;;;8.80;99.90;;;;;;5014425;28;20449;-77
2023/01/08 08:35:22;;;;;;;4.07;1.07;;;8.80;99.90;;;;;;5021852;28;20523;-76
2023/01/08 08:37:49;;;;;;;2.73;1.00;;;8.90;99.90;;;;;;5026028;28;20567;-75
2023/01/08 08:40:16;;;;;;;4.47;1.20;;;8.90;99.90;;;;;;5036488;28;20463;-77
2023/01/08 08:42:43;;;;;;;2.93;0.83;;;8.90;99.90;;;;;;5028412;28;20461;-77
2023/01/08 08:45:10;;;;;;;2.53;1.00;;;9.00;99.90;;;;;;5030772;28;21028;-77
2023/01/08 08:47:37;;;;;;;2.60;1.10;;;8.90;99.90;;;;;;5028506;28;20468;-77
2023/01/08 08:50:04;;;;;;;4.63;1.20;;;8.90;99.90;;;;;;5034780;28;20453;-77
2023/01/08 08:52:33;;;;;;;3.60;1.13;;;8.80;99.90;;;;;;5034313;28;20466;-77
2023/01/08 08:55:00;;;;;;;3.80;1.07;;;8.70;99.90;;;;;;5034996;28;20449;-78
2023/01/08 08:57:27;;;;;;;2.87;1.17;;;8.60;99.90;;;;;;5034448;28;20491;-78
2023/01/08 08:59:54;;;;;;;2.30;0.90;;;8.60;99.90;;;;;;5033231;28;20551;-78
2023/01/08 09:02:21;;;;;;;4.90;1.00;;;8.60;99.90;;;;;;5034495;28;20814;-78
2023/01/08 09:04:48;;;;;;;5.57;1.60;;;8.60;99.90;;;;;;5034963;28;20462;-78
2023/01/08 09:07:15;;;;;;;5.80;1.30;;;8.60;99.90;;;;;;5034362;28;20466;-78
2023/01/08 09:09:43;;;;;;;5.73;1.70;;;8.60;99.90;;;;;;5034020;28;20459;-78
2023/01/08 09:12:10;;;;;;;2.83;1.00;;;8.50;99.90;;;;;;5034535;28;20452;-78
2023/01/08 09:14:36;;;;;;;3.20;1.27;;;8.50;99.90;;;;;;5034897;28;20522;-79
2023/01/08 09:17:03;;;;;;;3.30;1.10;;;8.50;99.90;;;;;;5034031;28;20498;-78
2023/01/08 09:19:33;;;;;;;3.53;1.17;;;8.60;99.90;;;;;;5018794;28;20469;-78
2023/01/08 09:22:01;;;;;;;3.70;1.20;;;8.60;99.90;;;;;;5021433;28;20454;-78
2023/01/08 09:24:27;;;;;;;4.23;1.17;;;8.70;99.90;;;;;;5027277;28;20831;-77
2023/01/08 09:26:56;;;;;;;5.33;1.87;;;8.80;99.90;;;;;;5028514;28;20584;-77
2023/01/08 09:29:23;;;;;;;5.87;1.77;;;8.80;99.90;;;;;;5022493;28;20450;-77
2023/01/08 09:31:49;;;;;;;9.23;1.60;;;8.90;99.90;;;;;;5019368;28;20977;-78
2023/01/08 09:34:16;;;;;;;6.90;1.63;;;9.00;99.90;;;;;;5033003;28;20533;-76
2023/01/08 09:36:43;;;;;;;6.70;2.10;;;9.00;99.90;;;;;;5033511;28;21002;-77
2023/01/08 09:39:10;;;;;;;5.47;1.90;;;9.10;99.90;;;;;;5014700;28;20461;-77
2023/01/08 09:41:41;;;;;;;5.30;2.30;;;9.20;99.90;;;;;;5012544;28;20455;-77
2023/01/08 09:44:15;;;;;;;7.13;1.60;;;9.20;99.90;;;;;;5018951;28;20451;-77
2023/01/08 09:46:44;;;;;;;5.80;2.17;;;9.20;99.90;;;;;;5019008;28;20510;-77
2023/01/08 09:49:15;;;;;;;8.50;2.17;;;9.30;99.90;;;;;;5017271;28;20470;-77
2023/01/08 09:51:42;;;;;;;3.50;1.10;;;9.30;99.90;;;;;;5017783;28;20574;-77
2023/01/08 09:54:15;;;;;;;7.00;1.80;;;9.30;99.90;;;;;;5017750;28;20537;-77
2023/01/08 09:56:42;;;;;;;4.27;1.20;;;9.30;99.90;;;;;;5017698;28;20495;-77
2023/01/08 09:59:16;;;;;;;3.20;1.30;;;9.40;99.90;;;;;;5013815;28;20562;-77
2023/01/08 10:01:44;;;;;;;4.57;1.50;;;9.40;99.90;;;;;;5014358;28;20474;-79
2023/01/08 10:04:15;;;;;;;6.13;1.67;;;9.50;99.90;;;;;;5015395;28;20462;-78
2023/01/08 10:06:49;;;;;;;6.10;2.10;;;9.50;99.90;;;;;;5019904;28;20453;-78
2023/01/08 10:09:24;;;;;;;8.07;1.50;;;9.50;99.90;;;;;;5026992;28;20455;-77
2023/01/08 10:11:54;;;;;;;3.53;1.10;;;9.60;99.90;;;;;;5028401;28;20454;-78
2023/01/08 10:14:25;;;;;;;8.03;1.87;;;9.60;99.90;;;;;;5019470;28;20461;-76
2023/01/08 10:16:57;;;;;;;9.80;2.00;;;9.80;99.90;;;;;;5018157;28;20562;-76
2023/01/08 10:19:27;;;;;;;3.73;1.43;;;9.90;99.90;;;;;;5035240;28;20469;-77
2023/01/08 10:21:54;;;;;;;8.00;1.23;;;10.00;99.90;;;;;;5029631;28;20490;-77
2023/01/08 10:24:31;;;;;;;5.03;1.37;;;10.20;99.90;;;;;;5030449;28;20467;-75
2023/01/08 10:27:07;;;;;;;4.77;1.30;;;10.20;99.90;;;;;;5031719;28;20490;-77
2023/01/08 10:29:35;;;;;;;3.10;1.00;;;10.40;99.90;;;;;;5006644;28;20455;-78
2023/01/08 10:32:09;;;;;;;3.93;1.40;;;10.50;99.90;;;;;;5016097;28;20991;-78
2023/01/08 10:34:43;;;;;;;4.13;2.80;;;10.80;99.90;;;;;;5028958;28;20493;-79
2023/01/08 10:37:16;;;;;;;6.83;1.40;;;11.10;99.90;;;;;;5020410;28;20499;-78
2023/01/08 10:39:46;;;;;;;3.53;1.20;;;11.00;99.90;;;;;;5029267;28;20456;-78
2023/01/08 10:42:14;;;;;;;1.90;0.90;;;11.00;99.90;;;;;;5031227;28;20455;-78
2023/01/08 10:44:53;;;;;;;5.13;1.60;;;11.20;99.90;;;;;;5029211;28;20452;-79
2023/01/08 10:47:20;;;;;;;3.37;1.23;;;11.10;99.90;;;;;;5026800;28;20853;-78
2023/01/08 10:49:47;;;;;;;4.27;1.13;;;11.10;99.90;;;;;;5033845;28;20462;-78
2023/01/08 10:52:27;;;;;;;3.80;1.57;;;11.10;99.90;;;;;;5035428;28;20542;-79
2023/01/08 10:54:55;;;;;;;2.13;1.03;;;11.20;99.90;;;;;;5019952;28;20469;-78
2023/01/08 10:57:24;;;;;;;2.30;1.10;;;11.20;99.90;;;;;;5031535;28;20586;-78
2023/01/08 10:59:53;;;;;;;2.70;1.03;;;11.30;99.90;;;;;;5012094;28;21032;-79
2023/01/08 11:02:33;;;;;;;2.83;1.10;;;11.40;99.90;;;;;;5013834;28;20464;-78
2023/01/08 11:05:01;;;;;;;2.33;0.93;;;11.30;99.90;;;;;;5015587;28;20861;-77
2023/01/08 11:07:29;;;;;;;3.30;1.20;;;11.30;99.90;;;;;;5033871;28;20558;-78
2023/01/08 11:09:56;;;;;;;3.50;1.50;;;11.30;99.90;;;;;;5033318;28;20459;-78
2023/01/08 11:12:34;;;;;;;2.60;1.23;;;11.20;99.90;;;;;;5033254;28;20979;-77
2023/01/08 11:15:03;;;;;;;3.20;1.00;;;11.30;99.90;;;;;;5033578;28;20458;-78
2023/01/08 11:17:30;;;;;;;4.37;1.17;;;11.30;99.90;;;;;;5033068;28;20499;-77
2023/01/08 11:20:08;;;;;;;3.43;1.13;;;11.30;99.90;;;;;;5032979;28;20457;-77
2023/01/08 11:22:34;;;;;;;2.00;0.83;;;11.50;99.90;;;;;;5032531;28;20545;-78
2023/01/08 11:25:01;;;;;;;2.37;1.00;;;11.70;99.90;;;;;;5033898;28;20961;-77
2023/01/08 11:27:32;;;;;;;3.60;1.40;;;11.80;99.90;;;;;;5033794;28;20573;-78
2023/01/08 11:30:05;;;;;;;3.13;1.20;;;11.90;99.90;;;;;;5033072;28;20484;-78
2023/01/08 11:32:46;;;;;;;3.10;0.90;;;12.20;99.90;;;;;;5033445;28;20853;-79
2023/01/08 11:35:18;;;;;;;6.17;1.10;;;12.20;99.90;;;;;;5033631;28;20441;-78
2023/01/08 11:37:50;;;;;;;2.63;0.80;;;12.10;99.90;;;;;;5018757;28;20491;-77
2023/01/08 11:40:23;;;;;;;1.97;0.97;;;12.20;99.90;;;;;;5013274;28;20902;-77
2023/01/08 11:43:10;;;;;;;2.10;0.90;;;12.70;99.90;;;;;;5013545;28;20464;-78
2023/01/08 11:45:51;;;;;;;2.77;0.93;;;14.60;99.90;;;;;;5013411;28;20455;-78
2023/01/08 11:48:37;;;;;;;3.20;1.20;;;14.70;99.90;;;;;;5013093;28;20455;-78
2023/01/08 11:51:24;;;;;;;3.40;1.20;;;14.10;99.90;;;;;;5013203;28;20482;-78
2023/01/08 11:53:59;;;;;;;2.87;1.60;;;13.40;99.90;;;;;;5013527;28;20463;-79
2023/01/08 11:56:34;;;;;;;2.60;1.20;;;13.30;99.90;;;;;;5013356;28;20469;-78
2023/01/08 11:59:14;;;;;;;2.63;1.20;;;12.90;99.90;;;;;;5013339;28;20561;-79
2023/01/08 12:01:55;;;;;;;3.03;0.90;;;12.60;99.90;;;;;;5014703;28;20473;-77
2023/01/08 12:04:53;;;;;;;2.00;1.00;;;12.40;99.90;;;;;;5020736;28;20445;-78
2023/01/08 12:07:25;;;;;;;2.57;1.03;;;12.30;99.90;;;;;;5012831;28;20469;-79
2023/01/08 12:10:00;;;;;;;3.17;1.20;;;12.50;99.90;;;;;;5012901;28;20465;-78
2023/01/08 12:12:42;;;;;;;2.80;1.27;;;12.50;99.90;;;;;;5013577;28;20457;-78
2023/01/08 12:15:16;;;;;;;3.10;0.90;;;12.70;99.90;;;;;;5013846;28;20831;-78
2023/01/08 12:18:09;;;;;;;3.83;1.03;;;12.90;99.90;;;;;;5013232;28;20885;-78
2023/01/08 12:20:39;;;;;;;2.40;0.90;;;13.00;99.90;;;;;;5013333;28;20971;-78
2023/01/08 12:23:19;;;;;;;2.50;1.13;;;13.10;99.90;;;;;;5012926;28;20457;-79
2023/01/08 12:26:05;;;;;;;1.70;0.80;;;13.10;99.90;;;;;;5032563;28;20553;-79
2023/01/08 12:29:01;;;;;;;2.50;0.90;;;12.90;99.90;;;;;;5055635;23;20503;-77
2023/01/08 12:31:41;;;;;;;2.23;1.30;;;12.80;99.90;;;;;;5021029;28;21001;-77
2023/01/08 12:34:15;;;;;;;4.13;0.97;;;12.90;99.90;;;;;;5033665;28;20455;-77
2023/01/08 12:36:46;;;;;;;2.27;1.00;;;12.90;99.90;;;;;;5036452;28;20456;-77
2023/01/08 12:39:21;;;;;;;3.70;0.80;;;12.90;99.90;;;;;;5036862;28;20516;-76
2023/01/08 12:41:50;;;;;;;2.90;1.13;;;12.70;99.90;;;;;;5036173;28;20448;-77
2023/01/08 12:44:24;;;;;;;2.80;1.10;;;12.40;99.90;;;;;;5037864;28;20529;-77
2023/01/08 12:46:55;;;;;;;2.53;1.00;;;12.10;99.90;;;;;;5039834;28;20483;-76
2023/01/08 12:49:29;;;;;;;1.60;0.67;;;11.60;99.90;;;;;;5036635;28;20443;-75
2023/01/08 12:52:02;;;;;;;3.20;0.90;;;10.90;99.90;;;;;;5039237;28;20526;-77
2023/01/08 12:54:33;;;;;;;3.93;0.90;;;10.20;99.90;;;;;;5037397;28;20434;-77
2023/01/08 12:57:08;;;;;;;3.17;0.80;;;9.60;99.90;;;;;;5037802;28;20476;-76
2023/01/08 12:59:43;;;;;;;2.03;1.03;;;9.30;99.90;;;;;;5038006;28;20898;-77
2023/01/08 13:02:22;;;;;;;1.60;0.83;;;9.20;99.90;;;;;;5028413;28;20464;-76